createdAt,value
2022-10-19T00:01:13.576Z,71.37
2022-10-19T00:03:41.226Z,70.78
2022-10-19T00:06:12.651Z,69.81
2022-10-19T00:08:39.360Z,69.41
2022-10-19T00:11:06.113Z,69.20
2022-10-19T00:13:32.967Z,69.26
2022-10-19T00:15:59.652Z,70.83
2022-10-19T00:18:26.405Z,69.62
2022-10-19T00:20:53.114Z,68.48
2022-10-19T00:23:21.091Z,68.26
2022-10-19T00:25:57.703Z,68.19
2022-10-19T00:28:24.470Z,69.57
2022-10-19T00:30:51.638Z,70.55
2022-10-19T00:33:22.630Z,70.72
2022-10-19T00:35:52.077Z,71.07
2022-10-19T00:38:21.005Z,70.04
2022-10-19T00:40:48.435Z,70.54
2022-10-19T00:43:17.308Z,71.70
2022-10-19T00:45:44.045Z,72.44
2022-10-19T00:48:15.142Z,71.24
2022-10-19T00:50:44.285Z,70.91
2022-10-19T00:53:10.961Z,71.82
2022-10-19T00:55:40.929Z,71.43
2022-10-19T00:58:08.329Z,72.13
2022-10-19T01:00:36.344Z,71.74
2022-10-19T01:03:03.893Z,70.89
2022-10-19T01:05:32.654Z,69.87
2022-10-19T01:07:59.427Z,69.44
2022-10-19T01:10:48.013Z,69.24
2022-10-19T01:13:49.625Z,69.87
2022-10-19T01:16:29.319Z,70.37
2022-10-19T01:19:39.700Z,69.37
2022-10-19T01:22:12.205Z,69.45
2022-10-19T01:25:04.356Z,70.14
2022-10-19T01:27:44.083Z,70.77
2022-10-19T01:30:19.958Z,70.76
2022-10-19T01:33:07.667Z,69.90
2022-10-19T01:35:40.379Z,70.39
2022-10-19T01:38:19.584Z,69.33
2022-10-19T01:41:20.216Z,70.15
2022-10-19T01:43:55.844Z,71.71
2022-10-19T01:46:41.210Z,70.58
2022-10-19T01:49:17.777Z,70.44
2022-10-19T01:51:53.966Z,71.60
2022-10-19T01:54:22.642Z,72.60
2022-10-19T01:56:52.247Z,74.29
2022-10-19T01:59:21.257Z,74.62
2022-10-19T02:01:50.194Z,74.26
2022-10-19T02:04:19.810Z,73.14
2022-10-19T02:06:46.998Z,75.07
2022-10-19T02:09:18.174Z,74.48
2022-10-19T02:11:54.670Z,75.46
2022-10-19T02:14:30.113Z,74.73
2022-10-19T02:17:06.102Z,74.79
2022-10-19T02:19:33.037Z,75.48
2022-10-19T02:21:59.902Z,75.41
2022-10-19T02:24:26.690Z,75.20
2022-10-19T02:26:54.420Z,74.20
2022-10-19T02:29:21.412Z,74.51
2022-10-19T02:31:48.472Z,73.16
2022-10-19T02:34:15.513Z,72.69
2022-10-19T02:36:42.212Z,72.09
2022-10-19T02:39:09.649Z,71.89
2022-10-19T02:41:44.523Z,72.64
2022-10-19T02:44:23.699Z,73.72
2022-10-19T02:46:54.928Z,74.12
2022-10-19T02:49:22.074Z,74.13
2022-10-19T02:52:04.134Z,74.47
2022-10-19T02:54:31.450Z,74.49
2022-10-19T02:56:58.205Z,73.70
2022-10-19T02:59:25.390Z,73.22
2022-10-19T03:01:52.604Z,73.07
2022-10-19T03:04:19.378Z,72.16
2022-10-19T03:06:46.028Z,72.76
2022-10-19T03:09:12.771Z,73.82
2022-10-19T03:11:39.721Z,74.31
2022-10-19T03:14:06.330Z,72.44
2022-10-19T03:16:33.010Z,73.71
2022-10-19T03:18:59.839Z,74.00
2022-10-19T03:21:26.496Z,75.36
2022-10-19T03:23:53.074Z,75.94
2022-10-19T03:26:20.029Z,76.46
2022-10-19T03:28:46.673Z,77.19
2022-10-19T03:31:13.329Z,75.95
2022-10-19T03:33:40.011Z,76.11
2022-10-19T03:36:16.669Z,75.92
2022-10-19T03:38:43.764Z,75.69
2022-10-19T03:41:10.452Z,74.06
2022-10-19T03:43:37.342Z,74.61
2022-10-19T03:46:04.008Z,75.00
2022-10-19T03:48:30.695Z,76.77
2022-10-19T03:51:01.339Z,76.05
2022-10-19T03:53:28.390Z,76.65
2022-10-19T03:56:01.206Z,76.78
2022-10-19T03:58:27.790Z,75.53
2022-10-19T04:00:54.433Z,77.51
2022-10-19T04:03:21.071Z,77.65
2022-10-19T04:05:47.864Z,76.82
2022-10-19T04:08:14.564Z,76.07
2022-10-19T04:10:41.196Z,75.38
2022-10-19T04:13:08.255Z,74.34
2022-10-19T04:15:35.447Z,74.30
2022-10-19T04:18:02.366Z,75.17
2022-10-19T04:20:29.151Z,75.63
2022-10-19T04:22:55.858Z,75.49
2022-10-19T04:25:22.471Z,76.71
2022-10-19T04:27:49.563Z,76.86
2022-10-19T04:30:16.338Z,76.41
2022-10-19T04:32:43.008Z,75.98
2022-10-19T04:35:09.773Z,76.14
2022-10-19T04:37:36.673Z,76.23
2022-10-19T04:40:05.809Z,75.45
2022-10-19T04:42:32.416Z,74.87
2022-10-19T04:45:00.076Z,73.91
2022-10-19T04:47:26.671Z,73.95
2022-10-19T04:49:53.658Z,73.73
2022-10-19T04:52:20.376Z,72.26
2022-10-19T04:54:47.652Z,71.39
2022-10-19T04:57:14.902Z,71.04
2022-10-19T04:59:42.371Z,70.44
2022-10-19T05:02:08.933Z,69.58
2022-10-19T05:04:35.565Z,70.01
2022-10-19T05:07:02.190Z,69.47
2022-10-19T05:09:28.959Z,69.09
2022-10-19T05:11:55.621Z,71.60
2022-10-19T05:14:22.438Z,73.04
2022-10-19T05:16:49.762Z,73.66
2022-10-19T05:19:16.703Z,74.27
2022-10-19T05:21:43.319Z,75.73
2022-10-19T05:24:12.306Z,75.87
2022-10-19T05:26:40.361Z,71.75
2022-10-19T05:29:11.523Z,71.77
2022-10-19T05:31:38.453Z,71.06
2022-10-19T05:34:05.235Z,70.28
2022-10-19T05:36:35.173Z,69.50
2022-10-19T05:39:12.636Z,71.29
2022-10-19T05:41:39.522Z,71.29
2022-10-19T05:44:06.544Z,70.99
2022-10-19T05:46:33.942Z,71.24
2022-10-19T05:49:01.111Z,69.54
2022-10-19T05:51:28.712Z,69.08
2022-10-19T05:53:56.382Z,68.56
2022-10-19T05:56:28.587Z,70.63
2022-10-19T05:58:56.575Z,70.99
2022-10-19T06:01:23.812Z,70.42
2022-10-19T06:03:55.602Z,68.76
2022-10-19T06:06:23.143Z,67.95
2022-10-19T06:08:50.496Z,67.77
2022-10-19T06:11:22.635Z,67.54
2022-10-19T06:13:51.278Z,66.92
2022-10-19T06:16:20.240Z,67.72
2022-10-19T06:18:47.620Z,67.99
2022-10-19T06:21:16.623Z,69.23
2022-10-19T06:23:43.733Z,69.27
2022-10-19T06:26:14.252Z,68.67
2022-10-19T06:28:42.741Z,68.71
2022-10-19T06:31:10.336Z,68.18
2022-10-19T06:33:39.135Z,67.65
2022-10-19T06:36:14.326Z,67.68
2022-10-19T06:38:42.205Z,66.76
2022-10-19T06:41:09.134Z,66.16
2022-10-19T06:43:36.205Z,66.79
2022-10-19T06:46:23.451Z,66.98
2022-10-19T06:48:55.495Z,66.75
2022-10-19T06:51:24.536Z,66.20
2022-10-19T06:53:54.157Z,66.27
2022-10-19T06:56:24.756Z,66.27
2022-10-19T06:58:51.556Z,66.03
2022-10-19T07:01:18.469Z,66.83
2022-10-19T07:03:45.303Z,65.86
2022-10-19T07:06:14.007Z,65.55
2022-10-19T07:08:42.288Z,65.05
2022-10-19T07:11:11.683Z,65.21
2022-10-19T07:13:38.911Z,64.36
2022-10-19T07:16:08.350Z,64.86
2022-10-19T07:18:36.507Z,63.86
2022-10-19T07:21:05.918Z,63.57
2022-10-19T07:23:34.273Z,63.16
2022-10-19T07:26:18.292Z,64.42
2022-10-19T07:28:47.359Z,62.89
2022-10-19T07:31:17.945Z,62.04
2022-10-19T07:33:45.006Z,62.76
2022-10-19T07:36:13.670Z,62.82
2022-10-19T07:38:41.162Z,62.90
2022-10-19T07:41:13.425Z,62.14
2022-10-19T07:43:41.291Z,62.57
2022-10-19T07:46:11.750Z,62.91
2022-10-19T07:48:38.563Z,62.46
2022-10-19T07:51:07.327Z,61.96
2022-10-19T07:53:35.113Z,62.98
2022-10-19T07:56:08.194Z,62.03
2022-10-19T07:58:35.445Z,61.08
2022-10-19T08:01:10.002Z,61.59
2022-10-19T08:06:25.552Z,62.83
2022-10-19T08:08:53.493Z,62.97
2022-10-19T08:11:23.203Z,62.60
2022-10-19T08:13:50.579Z,63.48
2022-10-19T08:16:23.532Z,63.19
2022-10-19T08:18:50.902Z,61.64
2022-10-19T08:21:17.855Z,62.90
2022-10-19T08:23:44.569Z,61.60
2022-10-19T08:26:11.388Z,61.20
2022-10-19T08:28:38.165Z,61.85
2022-10-19T08:31:19.891Z,62.23
2022-10-19T08:33:46.936Z,60.68
2022-10-19T08:36:14.173Z,61.58
2022-10-19T08:38:41.624Z,60.30
2022-10-19T08:41:29.328Z,60.98
2022-10-19T08:44:24.215Z,60.18
2022-10-19T08:47:14.109Z,59.31
2022-10-19T08:49:41.842Z,57.80
2022-10-19T08:52:19.641Z,60.11
2022-10-19T08:54:53.607Z,59.82
2022-10-19T08:57:20.241Z,58.95
2022-10-19T09:00:09.854Z,57.40
2022-10-19T09:02:45.679Z,57.04
2022-10-19T09:05:27.333Z,57.46
2022-10-19T09:07:54.765Z,56.31
2022-10-19T09:10:26.703Z,56.89
2022-10-19T09:12:58.734Z,56.26
2022-10-19T09:15:46.898Z,55.33
2022-10-19T09:18:23.925Z,56.46
2022-10-19T09:20:56.805Z,56.60
2022-10-19T09:23:30.112Z,55.31
2022-10-19T09:25:58.066Z,55.91
2022-10-19T09:28:46.288Z,54.93
2022-10-19T09:31:22.231Z,53.26
2022-10-19T09:33:55.722Z,54.80
2022-10-19T09:36:39.204Z,54.03
2022-10-19T09:39:14.085Z,51.81
2022-10-19T09:41:51.548Z,52.55
2022-10-19T09:44:18.492Z,50.45
2022-10-19T09:47:15.350Z,51.48
2022-10-19T09:49:44.295Z,51.90
2022-10-19T09:52:31.164Z,52.97
2022-10-19T09:55:06.200Z,53.07
2022-10-19T09:57:33.737Z,52.51
2022-10-19T10:00:00.611Z,51.84
2022-10-19T10:02:34.123Z,50.80
2022-10-19T10:05:14.140Z,50.34
2022-10-19T10:07:41.144Z,49.57
2022-10-19T10:10:21.519Z,50.01
2022-10-19T10:12:49.046Z,51.41
2022-10-19T10:15:19.335Z,51.33
2022-10-19T10:17:48.748Z,50.61
2022-10-19T10:20:30.532Z,50.05
2022-10-19T10:23:04.309Z,49.70
2022-10-19T10:25:37.558Z,50.11
2022-10-19T10:28:26.429Z,51.30
2022-10-19T10:30:59.725Z,51.63
2022-10-19T10:33:43.793Z,52.01
2022-10-19T10:36:12.589Z,51.68
2022-10-19T10:38:47.560Z,50.90
2022-10-19T10:41:28.941Z,50.23
2022-10-19T10:43:58.593Z,51.02
2022-10-19T10:46:34.656Z,50.62
2022-10-19T10:49:07.244Z,51.36
2022-10-19T10:51:52.991Z,50.61
2022-10-19T10:54:31.393Z,48.07
2022-10-19T10:57:13.916Z,47.58
2022-10-19T10:59:56.148Z,47.46
2022-10-19T11:03:13.415Z,48.49
2022-10-19T11:05:47.443Z,48.77
2022-10-19T11:08:22.703Z,47.71
2022-10-19T11:11:01.870Z,48.04
2022-10-19T11:13:42.606Z,45.42
2022-10-19T11:16:16.272Z,45.54
2022-10-19T11:18:57.694Z,44.87
2022-10-19T11:21:27.353Z,45.76
2022-10-19T11:23:57.025Z,46.27
2022-10-19T11:26:37.107Z,45.71
2022-10-19T11:29:39.741Z,45.50
2022-10-19T11:32:17.491Z,47.02
2022-10-19T11:35:19.495Z,47.88
2022-10-19T11:38:19.792Z,47.46
2022-10-19T11:41:13.109Z,47.19
2022-10-19T11:44:13.527Z,46.41
2022-10-19T11:46:52.102Z,48.37
2022-10-19T11:49:37.687Z,45.38
2022-10-19T11:52:20.420Z,43.17
2022-10-19T11:55:24.653Z,46.11
2022-10-19T11:58:05.725Z,45.66
2022-10-19T12:00:44.425Z,46.07
2022-10-19T12:03:20.565Z,44.41
2022-10-19T12:06:14.136Z,43.40
2022-10-19T12:08:55.290Z,43.92
2022-10-19T12:11:32.153Z,44.93
2022-10-19T12:14:09.606Z,45.61
2022-10-19T12:16:47.557Z,45.40
2022-10-19T12:19:29.099Z,45.61
2022-10-19T12:22:00.622Z,45.42
2022-10-19T12:24:29.233Z,45.60
2022-10-19T12:26:57.125Z,46.00
2022-10-19T12:29:31.674Z,46.86
2022-10-19T12:32:01.362Z,47.40
2022-10-19T12:34:43.623Z,45.71
2022-10-19T12:37:10.239Z,44.93
2022-10-19T12:39:46.790Z,45.20
2022-10-19T12:42:19.191Z,43.64
2022-10-19T12:44:53.849Z,42.83
2022-10-19T12:47:25.161Z,43.37
2022-10-19T12:49:55.722Z,43.68
2022-10-19T12:52:39.744Z,44.00
2022-10-19T12:55:15.670Z,42.51
2022-10-19T12:57:58.080Z,41.91
2022-10-19T13:00:28.655Z,41.26
2022-10-19T13:03:16.087Z,42.44
2022-10-19T13:05:59.052Z,43.35
2022-10-19T13:08:33.109Z,42.00
2022-10-19T13:11:10.054Z,42.95
2022-10-19T13:13:57.097Z,42.59
2022-10-19T13:16:29.853Z,43.19
2022-10-19T13:18:59.777Z,43.85
2022-10-19T13:21:48.378Z,42.38
2022-10-19T13:24:23.958Z,42.53
2022-10-19T13:27:02.766Z,42.45
2022-10-19T13:29:39.166Z,43.88
2022-10-19T13:32:32.778Z,43.74
2022-10-19T13:35:21.990Z,43.23
2022-10-19T13:38:11.752Z,44.20
2022-10-19T13:41:04.654Z,43.19
2022-10-19T13:43:34.036Z,42.84
2022-10-19T13:46:08.114Z,41.63
2022-10-19T13:49:02.873Z,41.38
2022-10-19T13:51:48.164Z,40.19
2022-10-19T13:54:39.151Z,39.55
2022-10-19T13:57:18.451Z,40.59
2022-10-19T13:59:49.932Z,40.75
2022-10-19T14:02:34.884Z,42.39
2022-10-19T14:05:23.619Z,43.32
2022-10-19T14:08:00.952Z,45.67
2022-10-19T14:10:32.838Z,44.22
2022-10-19T14:13:11.044Z,43.80
2022-10-19T14:15:37.747Z,43.94
2022-10-19T14:18:06.007Z,43.81
2022-10-19T14:20:34.383Z,42.53
2022-10-19T14:23:25.311Z,41.90
2022-10-19T14:25:59.800Z,43.14
2022-10-19T14:28:28.063Z,42.41
2022-10-19T14:31:05.018Z,42.10
2022-10-19T14:33:37.941Z,43.34
2022-10-19T14:36:07.785Z,41.97
2022-10-19T14:38:38.384Z,43.07
2022-10-19T14:41:17.211Z,41.45
2022-10-19T14:43:44.031Z,42.33
2022-10-19T14:46:12.165Z,43.71
2022-10-19T14:48:47.510Z,42.38
2022-10-19T14:51:17.136Z,43.94
2022-10-19T14:53:55.540Z,43.07
2022-10-19T14:56:29.520Z,43.08
2022-10-19T14:59:02.403Z,42.07
2022-10-19T15:01:29.144Z,43.13
2022-10-19T15:03:56.471Z,43.37
2022-10-19T15:06:30.190Z,44.00
2022-10-19T15:09:01.988Z,43.49
2022-10-19T15:11:38.010Z,44.22
2022-10-19T15:14:25.969Z,44.11
2022-10-19T15:16:55.341Z,44.79
2022-10-19T15:19:34.253Z,45.80
2022-10-19T15:22:14.640Z,46.18
2022-10-19T15:25:06.264Z,45.99
2022-10-19T15:27:35.873Z,46.40
2022-10-19T15:30:17.895Z,46.87
2022-10-19T15:32:51.183Z,46.89
2022-10-19T15:35:29.662Z,47.09
2022-10-19T15:38:10.866Z,47.36
2022-10-19T15:40:40.532Z,46.47
2022-10-19T15:43:35.290Z,45.25
2022-10-19T15:46:05.052Z,45.55
2022-10-19T15:48:41.409Z,44.81
2022-10-19T15:51:23.549Z,45.23
2022-10-19T15:53:59.620Z,45.23
2022-10-19T15:56:29.860Z,44.09
2022-10-19T15:58:59.068Z,44.55
2022-10-19T16:01:28.185Z,45.07
2022-10-19T16:03:56.496Z,45.17
2022-10-19T16:06:26.320Z,44.95
2022-10-19T16:08:54.192Z,46.23
2022-10-19T16:11:25.499Z,45.95
2022-10-19T16:13:52.293Z,46.26
2022-10-19T16:16:28.210Z,45.23
2022-10-19T16:18:55.683Z,45.32
2022-10-19T16:21:27.116Z,45.93
2022-10-19T16:23:53.876Z,45.58
2022-10-19T16:26:21.524Z,45.96
2022-10-19T16:28:49.029Z,46.71
2022-10-19T16:31:17.999Z,47.95
2022-10-19T16:33:47.686Z,47.36
2022-10-19T16:36:20.461Z,47.01
2022-10-19T16:38:50.364Z,47.26
2022-10-19T16:41:25.088Z,48.19
2022-10-19T16:43:58.941Z,47.39
2022-10-19T16:46:26.308Z,47.93
2022-10-19T16:48:53.432Z,48.22
2022-10-19T16:51:33.297Z,47.81
2022-10-19T16:54:00.393Z,46.32
2022-10-19T16:56:29.396Z,46.43
2022-10-19T16:58:59.740Z,47.09
2022-10-19T17:01:27.057Z,48.70
2022-10-19T17:03:55.190Z,48.34
2022-10-19T17:06:23.115Z,48.17
2022-10-19T17:11:39.582Z,46.64
2022-10-19T17:14:11.149Z,48.13
2022-10-19T17:16:38.774Z,46.79
2022-10-19T17:19:07.329Z,47.24
2022-10-19T17:21:38.257Z,47.08
2022-10-19T17:24:07.702Z,47.63
2022-10-19T17:26:40.069Z,47.88
2022-10-19T17:29:07.081Z,47.55
2022-10-19T17:31:35.018Z,46.97
2022-10-19T17:34:02.474Z,47.35
2022-10-19T17:36:36.133Z,47.70
2022-10-19T17:39:06.909Z,47.87
2022-10-19T17:41:49.517Z,47.07
2022-10-19T17:44:18.684Z,47.85
2022-10-19T17:46:46.145Z,48.00
2022-10-19T17:49:13.425Z,49.06
2022-10-19T17:51:40.713Z,48.18
2022-10-19T17:54:13.309Z,48.22
2022-10-19T17:56:40.419Z,48.56
2022-10-19T17:59:09.359Z,49.23
2022-10-19T18:01:59.586Z,49.63
2022-10-19T18:04:26.399Z,49.37
2022-10-19T18:06:53.012Z,49.38
2022-10-19T18:09:19.665Z,49.65
2022-10-19T18:11:46.404Z,49.44
2022-10-19T18:14:13.167Z,49.78
2022-10-19T18:16:44.796Z,50.14
2022-10-19T18:19:13.195Z,50.74
2022-10-19T18:21:42.281Z,51.17
2022-10-19T18:24:15.126Z,51.01
2022-10-19T18:26:43.072Z,51.63
2022-10-19T18:29:17.117Z,50.97
2022-10-19T18:31:44.018Z,52.38
2022-10-19T18:34:14.613Z,52.32
2022-10-19T18:36:41.456Z,52.22
2022-10-19T18:39:08.258Z,52.42
2022-10-19T18:41:34.933Z,53.37
2022-10-19T18:44:05.240Z,53.52
2022-10-19T18:46:34.770Z,52.98
2022-10-19T18:49:02.669Z,53.25
2022-10-19T18:51:29.875Z,54.96
2022-10-19T18:53:56.667Z,55.71
2022-10-19T18:56:24.140Z,56.31
2022-10-19T18:58:51.483Z,56.13
2022-10-19T19:01:24.298Z,56.04
2022-10-19T19:03:57.106Z,55.81
2022-10-19T19:06:32.160Z,57.96
2022-10-19T19:09:01.358Z,58.36
2022-10-19T19:11:36.086Z,56.77
2022-10-19T19:14:12.557Z,58.57
2022-10-19T19:16:40.208Z,57.60
2022-10-19T19:19:07.950Z,58.10
2022-10-19T19:21:36.736Z,58.07
2022-10-19T19:24:18.400Z,58.79
2022-10-19T19:26:51.376Z,58.36
2022-10-19T19:29:25.700Z,58.32
2022-10-19T19:31:55.668Z,56.84
2022-10-19T19:34:26.489Z,59.41
2022-10-19T19:36:54.175Z,58.13
2022-10-19T19:39:21.449Z,57.85
2022-10-19T19:41:49.982Z,57.92
2022-10-19T19:44:19.100Z,57.37
2022-10-19T19:46:46.045Z,58.79
2022-10-19T19:49:12.721Z,58.49
2022-10-19T19:51:39.211Z,58.48
2022-10-19T19:54:05.851Z,57.72
2022-10-19T19:56:32.818Z,58.66
2022-10-19T19:59:03.774Z,57.76
2022-10-19T20:01:31.290Z,59.56
2022-10-19T20:03:59.395Z,58.25
2022-10-19T20:06:26.890Z,59.80
2022-10-19T20:08:55.292Z,60.99
2022-10-19T20:11:23.694Z,60.60
2022-10-19T20:13:51.296Z,59.46
2022-10-19T20:16:22.810Z,59.95
2022-10-19T20:18:55.993Z,59.95
2022-10-19T20:21:25.337Z,59.35
2022-10-19T20:23:51.939Z,59.49
2022-10-19T20:26:19.572Z,59.13
2022-10-19T20:28:47.016Z,60.09
2022-10-19T20:31:13.834Z,59.04
2022-10-19T20:33:41.763Z,59.49
2022-10-19T20:36:14.372Z,59.03
2022-10-19T20:38:45.966Z,58.95
2022-10-19T20:41:12.671Z,60.11
2022-10-19T20:43:39.418Z,58.96
2022-10-19T20:46:08.051Z,58.72
2022-10-19T20:48:34.762Z,58.79
2022-10-19T20:51:10.214Z,60.72
2022-10-19T20:53:36.906Z,61.98
2022-10-19T20:56:05.625Z,61.04
2022-10-19T20:58:33.357Z,60.29
2022-10-19T21:01:08.796Z,61.53
2022-10-19T21:03:36.173Z,61.52
2022-10-19T21:06:08.105Z,63.98
2022-10-19T21:08:36.068Z,63.63
2022-10-19T21:11:15.789Z,63.19
2022-10-19T21:13:43.690Z,62.73
2022-10-19T21:16:18.451Z,61.93
2022-10-19T21:18:46.891Z,60.97
2022-10-19T21:21:16.333Z,62.24
2022-10-19T21:23:45.030Z,60.65
2022-10-19T21:26:12.318Z,61.24
2022-10-19T21:28:40.117Z,60.99
2022-10-19T21:31:09.445Z,61.59
2022-10-19T21:33:36.637Z,61.80
2022-10-19T21:36:05.796Z,61.48
2022-10-19T21:38:32.787Z,59.92
2022-10-19T21:41:00.985Z,60.33
2022-10-19T21:43:28.781Z,61.03
2022-10-19T21:45:55.925Z,61.18
2022-10-19T21:48:23.300Z,60.89
2022-10-19T21:50:50.690Z,60.90
2022-10-19T21:53:22.614Z,59.97
2022-10-19T21:55:50.715Z,59.19
2022-10-19T21:58:21.759Z,59.35
2022-10-19T22:00:48.458Z,60.08
2022-10-19T22:03:17.435Z,60.80
2022-10-19T22:05:53.346Z,61.43
2022-10-19T22:08:20.152Z,61.14
2022-10-19T22:10:46.756Z,60.51
2022-10-19T22:13:13.497Z,60.14
2022-10-19T22:15:41.300Z,59.84
2022-10-19T22:18:08.813Z,60.00
2022-10-19T22:20:37.093Z,61.33
2022-10-19T22:23:04.988Z,60.02
2022-10-19T22:25:32.445Z,60.17
2022-10-19T22:27:59.057Z,60.48
2022-10-19T22:30:25.767Z,62.78
2022-10-19T22:32:53.258Z,62.41
2022-10-19T22:35:20.307Z,61.90
2022-10-19T22:37:46.840Z,63.39
2022-10-19T22:40:13.668Z,63.64
2022-10-19T22:43:37.059Z,62.40
2022-10-19T22:47:19.047Z,63.87
2022-10-19T22:51:01.164Z,64.66
2022-10-19T22:53:46.141Z,65.87
2022-10-19T22:56:13.435Z,64.28
2022-10-19T22:58:40.168Z,62.44
2022-10-19T23:01:10.897Z,63.39
2022-10-19T23:03:39.400Z,63.13
2022-10-19T23:06:11.030Z,63.48
2022-10-19T23:08:38.191Z,62.54
2022-10-19T23:11:05.194Z,63.25
2022-10-19T23:13:32.125Z,61.76
2022-10-19T23:15:58.757Z,61.62
2022-10-19T23:18:25.366Z,61.01
2022-10-19T23:21:03.639Z,60.86
2022-10-19T23:23:31.638Z,62.68
2022-10-19T23:26:10.463Z,62.63
2022-10-19T23:28:38.244Z,61.62
2022-10-19T23:31:11.593Z,61.45
2022-10-19T23:33:38.571Z,62.08
2022-10-19T23:36:17.621Z,64.44
2022-10-19T23:38:47.168Z,64.49
2022-10-19T23:41:15.214Z,63.72
2022-10-19T23:43:42.056Z,63.14
2022-10-19T23:46:08.969Z,61.25
2022-10-19T23:48:36.004Z,61.32
2022-10-19T23:51:08.266Z,60.57
2022-10-19T23:53:40.026Z,60.38
2022-10-19T23:56:11.995Z,61.98
2022-10-19T23:58:38.689Z,61.80
